sensor_id;sensor_type;location;lat;lon;timestamp;P1;durP1;ratioP1;P2;durP2;ratioP2
53939;SDS011;39850;43.324;21.916;2023-05-25T00:03:35;12.0;;;12.0;;
53939;SDS011;39850;43.324;21.916;2023-05-25T00:08:11;12.0;;;12.0;;
53939;SDS011;39850;43.324;21.916;2023-05-25T00:12:48;12.0;;;12.0;;
53939;SDS011;39850;43.324;21.916;2023-05-25T00:17:24;12.0;;;12.0;;
53939;SDS011;39850;43.324;21.916;2023-05-25T00:22:01;12.0;;;12.0;;
53939;SDS011;39850;43.324;21.916;2023-05-25T00:26:39;12.0;;;12.0;;
53939;SDS011;39850;43.324;21.916;2023-05-25T00:31:16;12.0;;;12.0;;
53939;SDS011;39850;43.324;21.916;2023-05-25T00:35:52;12.0;;;12.0;;
53939;SDS011;39850;43.324;21.916;2023-05-25T00:40:29;12.0;;;12.0;;
53939;SDS011;39850;43.324;21.916;2023-05-25T00:45:10;12.0;;;12.0;;
53939;SDS011;39850;43.324;21.916;2023-05-25T00:49:47;12.0;;;12.0;;
53939;SDS011;39850;43.324;21.916;2023-05-25T01:23:13;14.0;;;14.0;;
53939;SDS011;39850;43.324;21.916;2023-05-25T01:28:12;14.0;;;14.0;;
53939;SDS011;39850;43.324;21.916;2023-05-25T01:32:54;14.0;;;14.0;;
53939;SDS011;39850;43.324;21.916;2023-05-25T01:37:34;14.0;;;14.0;;
53939;SDS011;39850;43.324;21.916;2023-05-25T01:42:11;14.0;;;14.0;;
53939;SDS011;39850;43.324;21.916;2023-05-25T01:47:15;14.0;;;14.0;;
53939;SDS011;39850;43.324;21.916;2023-05-25T01:52:21;14.0;;;14.0;;
53939;SDS011;39850;43.324;21.916;2023-05-25T01:57:17;14.0;;;14.0;;
53939;SDS011;39850;43.324;21.916;2023-05-25T02:02:00;14.0;;;14.0;;
53939;SDS011;39850;43.324;21.916;2023-05-25T02:06:38;14.0;;;14.0;;
53939;SDS011;39850;43.324;21.916;2023-05-25T02:11:16;14.0;;;14.0;;
53939;SDS011;39850;43.324;21.916;2023-05-25T02:43:37;16.0;;;16.0;;
53939;SDS011;39850;43.324;21.916;2023-05-25T02:48:14;16.0;;;16.0;;
53939;SDS011;39850;43.324;21.916;2023-05-25T02:52:51;16.0;;;16.0;;
53939;SDS011;39850;43.324;21.916;2023-05-25T02:57:29;16.0;;;16.0;;
53939;SDS011;39850;43.324;21.916;2023-05-25T03:02:06;16.0;;;16.0;;
53939;SDS011;39850;43.324;21.916;2023-05-25T03:06:43;15.0;;;15.0;;
53939;SDS011;39850;43.324;21.916;2023-05-25T03:11:20;15.0;;;15.0;;
53939;SDS011;39850;43.324;21.916;2023-05-25T03:15:56;15.0;;;15.0;;
53939;SDS011;39850;43.324;21.916;2023-05-25T03:20:33;15.0;;;15.0;;
53939;SDS011;39850;43.324;21.916;2023-05-25T03:25:10;15.0;;;15.0;;
53939;SDS011;39850;43.324;21.916;2023-05-25T03:29:49;15.0;;;15.0;;
53939;SDS011;39850;43.324;21.916;2023-05-25T04:06:40;14.0;;;14.0;;
53939;SDS011;39850;43.324;21.916;2023-05-25T04:11:18;14.0;;;14.0;;
53939;SDS011;39850;43.324;21.916;2023-05-25T04:15:55;14.0;;;14.0;;
53939;SDS011;39850;43.324;21.916;2023-05-25T04:20:32;14.0;;;14.0;;
53939;SDS011;39850;43.324;21.916;2023-05-25T04:25:10;14.0;;;14.0;;
53939;SDS011;39850;43.324;21.916;2023-05-25T04:29:47;14.0;;;14.0;;
53939;SDS011;39850;43.324;21.916;2023-05-25T04:34:23;13.0;;;13.0;;
53939;SDS011;39850;43.324;21.916;2023-05-25T04:39:00;13.0;;;13.0;;
53939;SDS011;39850;43.324;21.916;2023-05-25T05:25:09;14.0;;;14.0;;
53939;SDS011;39850;43.324;21.916;2023-05-25T05:29:45;14.0;;;14.0;;
53939;SDS011;39850;43.324;21.916;2023-05-25T05:34:22;14.0;;;14.0;;
53939;SDS011;39850;43.324;21.916;2023-05-25T05:38:59;14.0;;;14.0;;
53939;SDS011;39850;43.324;21.916;2023-05-25T05:43:36;14.0;;;14.0;;
53939;SDS011;39850;43.324;21.916;2023-05-25T05:48:13;14.0;;;14.0;;
53939;SDS011;39850;43.324;21.916;2023-05-25T05:52:49;14.0;;;14.0;;
53939;SDS011;39850;43.324;21.916;2023-05-25T05:57:26;14.0;;;14.0;;
53939;SDS011;39850;43.324;21.916;2023-05-25T06:02:04;14.0;;;14.0;;
53939;SDS011;39850;43.324;21.916;2023-05-25T06:06:41;14.0;;;14.0;;
53939;SDS011;39850;43.324;21.916;2023-05-25T06:11:18;14.0;;;14.0;;
53939;SDS011;39850;43.324;21.916;2023-05-25T06:43:35;16.0;;;16.0;;
53939;SDS011;39850;43.324;21.916;2023-05-25T06:48:11;16.0;;;16.0;;
53939;SDS011;39850;43.324;21.916;2023-05-25T06:52:48;16.0;;;16.0;;
53939;SDS011;39850;43.324;21.916;2023-05-25T06:57:25;16.0;;;15.0;;
53939;SDS011;39850;43.324;21.916;2023-05-25T07:02:01;16.0;;;15.0;;
53939;SDS011;39850;43.324;21.916;2023-05-25T07:06:38;16.0;;;15.0;;
53939;SDS011;39850;43.324;21.916;2023-05-25T07:11:14;16.0;;;15.0;;
53939;SDS011;39850;43.324;21.916;2023-05-25T07:15:51;16.0;;;14.0;;
53939;SDS011;39850;43.324;21.916;2023-05-25T07:20:27;16.0;;;14.0;;
53939;SDS011;39850;43.324;21.916;2023-05-25T07:25:07;16.0;;;15.0;;
53939;SDS011;39850;43.324;21.916;2023-05-25T07:29:44;16.0;;;15.0;;
53939;SDS011;39850;43.324;21.916;2023-05-25T08:06:39;19.0;;;14.0;;
53939;SDS011;39850;43.324;21.916;2023-05-25T08:11:22;19.0;;;14.0;;
53939;SDS011;39850;43.324;21.916;2023-05-25T08:16:00;16.0;;;14.0;;
53939;SDS011;39850;43.324;21.916;2023-05-25T08:20:37;16.0;;;14.0;;
53939;SDS011;39850;43.324;21.916;2023-05-25T08:25:14;14.0;;;13.0;;
53939;SDS011;39850;43.324;21.916;2023-05-25T08:29:51;14.0;;;13.0;;
53939;SDS011;39850;43.324;21.916;2023-05-25T08:34:27;14.0;;;13.0;;
53939;SDS011;39850;43.324;21.916;2023-05-25T08:39:04;14.0;;;13.0;;
53939;SDS011;39850;43.324;21.916;2023-05-25T08:43:42;14.0;;;13.0;;
53939;SDS011;39850;43.324;21.916;2023-05-25T08:48:33;14.0;;;13.0;;
53939;SDS011;39850;43.324;21.916;2023-05-25T08:53:17;14.0;;;13.0;;
53939;SDS011;39850;43.324;21.916;2023-05-25T09:26:20;12.0;;;11.0;;
53939;SDS011;39850;43.324;21.916;2023-05-25T09:30:58;12.0;;;11.0;;
53939;SDS011;39850;43.324;21.916;2023-05-25T09:35:36;12.0;;;10.0;;
53939;SDS011;39850;43.324;21.916;2023-05-25T09:40:14;12.0;;;10.0;;
53939;SDS011;39850;43.324;21.916;2023-05-25T09:44:51;12.0;;;10.0;;
53939;SDS011;39850;43.324;21.916;2023-05-25T09:49:28;12.0;;;10.0;;
53939;SDS011;39850;43.324;21.916;2023-05-25T09:54:11;12.0;;;10.0;;
53939;SDS011;39850;43.324;21.916;2023-05-25T09:58:47;12.0;;;10.0;;
53939;SDS011;39850;43.324;21.916;2023-05-25T10:03:24;12.0;;;10.0;;
53939;SDS011;39850;43.324;21.916;2023-05-25T10:08:03;12.0;;;10.0;;
53939;SDS011;39850;43.324;21.916;2023-05-25T10:12:44;12.0;;;10.0;;
53939;SDS011;39850;43.324;21.916;2023-05-25T10:46:30;11.0;;;10.0;;
53939;SDS011;39850;43.324;21.916;2023-05-25T10:51:07;11.0;;;10.0;;
53939;SDS011;39850;43.324;21.916;2023-05-25T10:56:07;11.0;;;10.0;;
53939;SDS011;39850;43.324;21.916;2023-05-25T11:01:08;11.0;;;10.0;;
53939;SDS011;39850;43.324;21.916;2023-05-25T11:05:50;11.0;;;10.0;;
53939;SDS011;39850;43.324;21.916;2023-05-25T11:10:59;11.0;;;10.0;;
53939;SDS011;39850;43.324;21.916;2023-05-25T11:15:35;10.0;;;9.0;;
53939;SDS011;39850;43.324;21.916;2023-05-25T11:20:28;10.0;;;9.0;;
53939;SDS011;39850;43.324;21.916;2023-05-25T11:25:41;9.0;;;8.0;;
53939;SDS011;39850;43.324;21.916;2023-05-25T11:30:19;9.0;;;8.0;;
53939;SDS011;39850;43.324;21.916;2023-05-25T12:07:19;12.0;;;11.0;;
53939;SDS011;39850;43.324;21.916;2023-05-25T12:11:57;12.0;;;11.0;;
53939;SDS011;39850;43.324;21.916;2023-05-25T12:16:37;11.0;;;10.0;;
53939;SDS011;39850;43.324;21.916;2023-05-25T12:21:16;11.0;;;10.0;;
53939;SDS011;39850;43.324;21.916;2023-05-25T12:26:14;11.0;;;9.0;;
53939;SDS011;39850;43.324;21.916;2023-05-25T12:30:51;11.0;;;9.0;;
53939;SDS011;39850;43.324;21.916;2023-05-25T12:35:43;10.0;;;9.0;;
53939;SDS011;39850;43.324;21.916;2023-05-25T12:40:22;10.0;;;9.0;;
53939;SDS011;39850;43.324;21.916;2023-05-25T12:44:58;11.0;;;9.0;;
53939;SDS011;39850;43.324;21.916;2023-05-25T12:49:35;11.0;;;9.0;;
53939;SDS011;39850;43.324;21.916;2023-05-25T12:54:11;11.0;;;9.0;;
53939;SDS011;39850;43.324;21.916;2023-05-25T13:26:35;17.0;;;17.0;;
53939;SDS011;39850;43.324;21.916;2023-05-25T13:31:12;17.0;;;17.0;;
53939;SDS011;39850;43.324;21.916;2023-05-25T13:35:49;16.0;;;14.0;;
53939;SDS011;39850;43.324;21.916;2023-05-25T13:40:26;16.0;;;14.0;;
53939;SDS011;39850;43.324;21.916;2023-05-25T13:45:08;14.0;;;11.0;;
53939;SDS011;39850;43.324;21.916;2023-05-25T13:49:45;14.0;;;11.0;;
53939;SDS011;39850;43.324;21.916;2023-05-25T13:54:22;14.0;;;11.0;;
53939;SDS011;39850;43.324;21.916;2023-05-25T13:58:58;13.0;;;10.0;;
53939;SDS011;39850;43.324;21.916;2023-05-25T14:03:37;13.0;;;10.0;;
53939;SDS011;39850;43.324;21.916;2023-05-25T14:08:14;12.0;;;10.0;;
53939;SDS011;39850;43.324;21.916;2023-05-25T14:12:51;12.0;;;10.0;;
53939;SDS011;39850;43.324;21.916;2023-05-25T14:45:09;10.0;;;8.0;;
53939;SDS011;39850;43.324;21.916;2023-05-25T14:49:46;10.0;;;8.0;;
53939;SDS011;39850;43.324;21.916;2023-05-25T14:54:22;10.0;;;8.0;;
53939;SDS011;39850;43.324;21.916;2023-05-25T14:58:59;10.0;;;8.0;;
53939;SDS011;39850;43.324;21.916;2023-05-25T15:03:35;10.0;;;8.0;;
53939;SDS011;39850;43.324;21.916;2023-05-25T15:08:12;10.0;;;8.0;;
53939;SDS011;39850;43.324;21.916;2023-05-25T15:12:48;10.0;;;8.0;;
53939;SDS011;39850;43.324;21.916;2023-05-25T15:17:25;9.0;;;7.0;;
53939;SDS011;39850;43.324;21.916;2023-05-25T15:22:03;9.0;;;7.0;;
53939;SDS011;39850;43.324;21.916;2023-05-25T16:08:17;17.0;;;17.0;;
53939;SDS011;39850;43.324;21.916;2023-05-25T16:12:54;17.0;;;17.0;;
53939;SDS011;39850;43.324;21.916;2023-05-25T16:17:30;16.0;;;16.0;;
53939;SDS011;39850;43.324;21.916;2023-05-25T16:22:07;16.0;;;16.0;;
53939;SDS011;39850;43.324;21.916;2023-05-25T16:26:43;16.0;;;16.0;;
53939;SDS011;39850;43.324;21.916;2023-05-25T16:31:20;16.0;;;16.0;;
53939;SDS011;39850;43.324;21.916;2023-05-25T16:35:57;15.0;;;15.0;;
53939;SDS011;39850;43.324;21.916;2023-05-25T16:40:34;15.0;;;15.0;;
53939;SDS011;39850;43.324;21.916;2023-05-25T16:45:11;15.0;;;15.0;;
53939;SDS011;39850;43.324;21.916;2023-05-25T17:26:38;15.0;;;9.0;;
53939;SDS011;39850;43.324;21.916;2023-05-25T17:31:15;15.0;;;9.0;;
53939;SDS011;39850;43.324;21.916;2023-05-25T17:35:51;14.0;;;10.0;;
53939;SDS011;39850;43.324;21.916;2023-05-25T17:40:28;14.0;;;10.0;;
53939;SDS011;39850;43.324;21.916;2023-05-25T17:45:09;14.0;;;10.0;;
53939;SDS011;39850;43.324;21.916;2023-05-25T17:49:46;15.0;;;12.0;;
53939;SDS011;39850;43.324;21.916;2023-05-25T17:54:23;15.0;;;12.0;;
53939;SDS011;39850;43.324;21.916;2023-05-25T17:58:59;16.0;;;16.0;;
53939;SDS011;39850;43.324;21.916;2023-05-25T18:03:36;16.0;;;16.0;;
53939;SDS011;39850;43.324;21.916;2023-05-25T18:08:13;19.0;;;20.0;;
53939;SDS011;39850;43.324;21.916;2023-05-25T18:12:49;19.0;;;20.0;;
53939;SDS011;39850;43.324;21.916;2023-05-25T18:49:46;11.0;;;9.0;;
53939;SDS011;39850;43.324;21.916;2023-05-25T18:54:23;11.0;;;9.0;;
53939;SDS011;39850;43.324;21.916;2023-05-25T18:59:00;14.0;;;12.0;;
53939;SDS011;39850;43.324;21.916;2023-05-25T19:03:36;14.0;;;12.0;;
53939;SDS011;39850;43.324;21.916;2023-05-25T19:08:13;16.0;;;15.0;;
53939;SDS011;39850;43.324;21.916;2023-05-25T19:12:50;16.0;;;15.0;;
53939;SDS011;39850;43.324;21.916;2023-05-25T19:17:26;21.0;;;20.0;;
53939;SDS011;39850;43.324;21.916;2023-05-25T19:22:03;21.0;;;20.0;;
53939;SDS011;39850;43.324;21.916;2023-05-25T19:26:40;26.0;;;26.0;;
53939;SDS011;39850;43.324;21.916;2023-05-25T19:31:17;26.0;;;26.0;;
53939;SDS011;39850;43.324;21.916;2023-05-25T20:08:11;13.0;;;11.0;;
53939;SDS011;39850;43.324;21.916;2023-05-25T20:12:47;13.0;;;11.0;;
53939;SDS011;39850;43.324;21.916;2023-05-25T20:17:24;13.0;;;11.0;;
53939;SDS011;39850;43.324;21.916;2023-05-25T20:22:00;13.0;;;11.0;;
53939;SDS011;39850;43.324;21.916;2023-05-25T20:26:37;14.0;;;12.0;;
53939;SDS011;39850;43.324;21.916;2023-05-25T20:31:13;14.0;;;12.0;;
53939;SDS011;39850;43.324;21.916;2023-05-25T20:35:50;14.0;;;12.0;;
53939;SDS011;39850;43.324;21.916;2023-05-25T20:40:27;15.0;;;12.0;;
53939;SDS011;39850;43.324;21.916;2023-05-25T20:45:07;15.0;;;12.0;;
53939;SDS011;39850;43.324;21.916;2023-05-25T20:49:45;15.0;;;12.0;;
53939;SDS011;39850;43.324;21.916;2023-05-25T20:54:23;15.0;;;12.0;;
53939;SDS011;39850;43.324;21.916;2023-05-25T21:26:41;18.0;;;18.0;;
53939;SDS011;39850;43.324;21.916;2023-05-25T21:31:18;18.0;;;18.0;;
53939;SDS011;39850;43.324;21.916;2023-05-25T21:35:55;18.0;;;18.0;;
53939;SDS011;39850;43.324;21.916;2023-05-25T21:40:32;26.0;;;25.0;;
53939;SDS011;39850;43.324;21.916;2023-05-25T21:45:10;26.0;;;25.0;;
53939;SDS011;39850;43.324;21.916;2023-05-25T21:49:48;18.0;;;18.0;;
53939;SDS011;39850;43.324;21.916;2023-05-25T21:54:25;18.0;;;18.0;;
53939;SDS011;39850;43.324;21.916;2023-05-25T21:59:01;24.0;;;21.0;;
53939;SDS011;39850;43.324;21.916;2023-05-25T22:03:37;24.0;;;21.0;;
53939;SDS011;39850;43.324;21.916;2023-05-25T22:08:14;15.0;;;10.0;;
53939;SDS011;39850;43.324;21.916;2023-05-25T22:12:50;15.0;;;10.0;;
53939;SDS011;39850;43.324;21.916;2023-05-25T22:49:44;16.0;;;15.0;;
53939;SDS011;39850;43.324;21.916;2023-05-25T22:54:21;16.0;;;15.0;;
53939;SDS011;39850;43.324;21.916;2023-05-25T22:58:57;14.0;;;12.0;;
53939;SDS011;39850;43.324;21.916;2023-05-25T23:03:34;14.0;;;12.0;;
53939;SDS011;39850;43.324;21.916;2023-05-25T23:08:10;14.0;;;12.0;;
53939;SDS011;39850;43.324;21.916;2023-05-25T23:12:46;14.0;;;12.0;;
53939;SDS011;39850;43.324;21.916;2023-05-25T23:17:23;12.0;;;9.0;;
53939;SDS011;39850;43.324;21.916;2023-05-25T23:21:59;12.0;;;9.0;;
